sensor_id;sensor_type;location;lat;lon;timestamp;temperature;humidity
72320;SHT30;60269;52.502;16.732;2022-12-29T00:01:52;6.25;89.01
72320;SHT30;60269;52.502;16.732;2022-12-29T00:05:24;6.26;88.87
72320;SHT30;60269;52.502;16.732;2022-12-29T00:08:56;6.23;88.97
72320;SHT30;60269;52.502;16.732;2022-12-29T00:12:28;6.36;87.90
72320;SHT30;60269;52.502;16.732;2022-12-29T00:16:21;6.42;87.33
72320;SHT30;60269;52.502;16.732;2022-12-29T00:19:53;6.42;87.25
72320;SHT30;60269;52.502;16.732;2022-12-29T00:23:44;6.39;87.32
72320;SHT30;60269;52.502;16.732;2022-12-29T00:27:35;6.43;86.85
72320;SHT30;60269;52.502;16.732;2022-12-29T00:31:25;6.42;87.04
72320;SHT30;60269;52.502;16.732;2022-12-29T00:35:27;6.36;87.42
72320;SHT30;60269;52.502;16.732;2022-12-29T00:39:02;6.32;87.68
72320;SHT30;60269;52.502;16.732;2022-12-29T00:42:53;6.25;88.00
72320;SHT30;60269;52.502;16.732;2022-12-29T00:46:44;6.30;88.06
72320;SHT30;60269;52.502;16.732;2022-12-29T00:50:16;6.35;87.28
72320;SHT30;60269;52.502;16.732;2022-12-29T00:53:49;6.28;87.56
72320;SHT30;60269;52.502;16.732;2022-12-29T00:57:21;6.26;87.91
72320;SHT30;60269;52.502;16.732;2022-12-29T01:01:04;6.22;87.90
72320;SHT30;60269;52.502;16.732;2022-12-29T01:04:38;6.25;87.71
72320;SHT30;60269;52.502;16.732;2022-12-29T01:08:09;6.26;87.40
72320;SHT30;60269;52.502;16.732;2022-12-29T01:11:41;6.30;87.04
72320;SHT30;60269;52.502;16.732;2022-12-29T01:15:14;6.36;86.64
72320;SHT30;60269;52.502;16.732;2022-12-29T01:18:46;6.32;86.80
72320;SHT30;60269;52.502;16.732;2022-12-29T01:22:18;6.30;87.02
72320;SHT30;60269;52.502;16.732;2022-12-29T01:25:50;6.42;86.35
72320;SHT30;60269;52.502;16.732;2022-12-29T01:29:22;6.50;85.73
72320;SHT30;60269;52.502;16.732;2022-12-29T01:32:54;6.46;85.81
72320;SHT30;60269;52.502;16.732;2022-12-29T01:36:26;6.46;86.15
72320;SHT30;60269;52.502;16.732;2022-12-29T01:39:58;6.60;85.38
72320;SHT30;60269;52.502;16.732;2022-12-29T01:43:45;6.67;84.66
72320;SHT30;60269;52.502;16.732;2022-12-29T01:47:34;6.76;84.01
72320;SHT30;60269;52.502;16.732;2022-12-29T01:51:10;6.90;83.42
72320;SHT30;60269;52.502;16.732;2022-12-29T01:54:45;6.97;83.16
72320;SHT30;60269;52.502;16.732;2022-12-29T01:58:20;6.98;82.82
72320;SHT30;60269;52.502;16.732;2022-12-29T02:01:54;7.02;82.92
72320;SHT30;60269;52.502;16.732;2022-12-29T02:09:20;6.76;85.22
72320;SHT30;60269;52.502;16.732;2022-12-29T02:12:52;6.60;86.62
72320;SHT30;60269;52.502;16.732;2022-12-29T02:16:35;6.57;86.79
72320;SHT30;60269;52.502;16.732;2022-12-29T02:39:44;6.33;89.19
72320;SHT30;60269;52.502;16.732;2022-12-29T02:50:53;6.35;89.29
72320;SHT30;60269;52.502;16.732;2022-12-29T02:54:27;6.44;88.76
72320;SHT30;60269;52.502;16.732;2022-12-29T03:09:52;6.42;88.49
72320;SHT30;60269;52.502;16.732;2022-12-29T03:14:06;6.47;88.12
72320;SHT30;60269;52.502;16.732;2022-12-29T03:18:06;6.47;88.50
72320;SHT30;60269;52.502;16.732;2022-12-29T03:22:05;6.40;89.38
72320;SHT30;60269;52.502;16.732;2022-12-29T03:25:58;6.33;90.97
72320;SHT30;60269;52.502;16.732;2022-12-29T03:29:36;6.29;90.39
72320;SHT30;60269;52.502;16.732;2022-12-29T03:33:14;6.29;90.21
72320;SHT30;60269;52.502;16.732;2022-12-29T03:40:24;6.14;91.40
72320;SHT30;60269;52.502;16.732;2022-12-29T03:43:57;6.18;91.31
72320;SHT30;60269;52.502;16.732;2022-12-29T03:47:30;6.14;91.40
72320;SHT30;60269;52.502;16.732;2022-12-29T03:51:02;6.12;91.46
72320;SHT30;60269;52.502;16.732;2022-12-29T03:54:34;6.23;90.48
72320;SHT30;60269;52.502;16.732;2022-12-29T03:58:07;6.32;89.90
72320;SHT30;60269;52.502;16.732;2022-12-29T04:01:39;6.37;89.06
72320;SHT30;60269;52.502;16.732;2022-12-29T04:05:10;6.43;88.65
72320;SHT30;60269;52.502;16.732;2022-12-29T04:08:43;6.43;88.36
72320;SHT30;60269;52.502;16.732;2022-12-29T04:12:16;6.54;87.66
72320;SHT30;60269;52.502;16.732;2022-12-29T04:15:49;6.60;86.98
72320;SHT30;60269;52.502;16.732;2022-12-29T04:19:21;6.58;87.51
72320;SHT30;60269;52.502;16.732;2022-12-29T04:23:02;6.58;86.81
72320;SHT30;60269;52.502;16.732;2022-12-29T04:26:34;6.67;86.18
72320;SHT30;60269;52.502;16.732;2022-12-29T04:30:07;6.72;86.02
72320;SHT30;60269;52.502;16.732;2022-12-29T04:33:39;6.76;85.73
72320;SHT30;60269;52.502;16.732;2022-12-29T04:37:11;6.84;84.95
72320;SHT30;60269;52.502;16.732;2022-12-29T04:40:43;6.80;85.31
72320;SHT30;60269;52.502;16.732;2022-12-29T04:44:16;6.81;84.74
72320;SHT30;60269;52.502;16.732;2022-12-29T04:47:48;6.77;85.22
72320;SHT30;60269;52.502;16.732;2022-12-29T04:51:20;6.80;84.73
72320;SHT30;60269;52.502;16.732;2022-12-29T04:54:52;6.81;84.79
72320;SHT30;60269;52.502;16.732;2022-12-29T04:58:24;6.73;84.79
72320;SHT30;60269;52.502;16.732;2022-12-29T05:01:56;6.72;84.51
72320;SHT30;60269;52.502;16.732;2022-12-29T05:05:28;6.66;84.66
72320;SHT30;60269;52.502;16.732;2022-12-29T05:09:00;6.66;84.64
72320;SHT30;60269;52.502;16.732;2022-12-29T05:12:34;6.63;84.72
72320;SHT30;60269;52.502;16.732;2022-12-29T05:16:07;6.53;85.05
72320;SHT30;60269;52.502;16.732;2022-12-29T05:19:39;6.29;86.30
72320;SHT30;60269;52.502;16.732;2022-12-29T05:23:11;6.35;85.96
72320;SHT30;60269;52.502;16.732;2022-12-29T05:26:44;6.35;85.74
72320;SHT30;60269;52.502;16.732;2022-12-29T05:30:16;6.39;85.63
72320;SHT30;60269;52.502;16.732;2022-12-29T05:33:49;6.43;85.53
72320;SHT30;60269;52.502;16.732;2022-12-29T05:37:20;6.40;85.93
72320;SHT30;60269;52.502;16.732;2022-12-29T05:40:52;6.52;85.49
72320;SHT30;60269;52.502;16.732;2022-12-29T05:44:24;6.73;84.43
72320;SHT30;60269;52.502;16.732;2022-12-29T05:47:56;6.64;85.32
72320;SHT30;60269;52.502;16.732;2022-12-29T05:51:28;6.77;84.91
72320;SHT30;60269;52.502;16.732;2022-12-29T05:55:00;6.95;83.67
72320;SHT30;60269;52.502;16.732;2022-12-29T05:58:33;6.93;84.19
72320;SHT30;60269;52.502;16.732;2022-12-29T06:02:05;7.01;83.68
72320;SHT30;60269;52.502;16.732;2022-12-29T06:05:37;7.00;83.76
72320;SHT30;60269;52.502;16.732;2022-12-29T06:09:10;7.04;83.67
72320;SHT30;60269;52.502;16.732;2022-12-29T06:12:42;7.04;83.89
72320;SHT30;60269;52.502;16.732;2022-12-29T06:16:15;7.07;83.74
72320;SHT30;60269;52.502;16.732;2022-12-29T06:19:48;7.09;83.94
72320;SHT30;60269;52.502;16.732;2022-12-29T06:23:20;7.16;83.59
72320;SHT30;60269;52.502;16.732;2022-12-29T06:26:52;7.18;83.73
72320;SHT30;60269;52.502;16.732;2022-12-29T06:30:25;7.25;83.36
72320;SHT30;60269;52.502;16.732;2022-12-29T06:33:57;7.26;83.34
72320;SHT30;60269;52.502;16.732;2022-12-29T06:37:34;7.32;83.29
72320;SHT30;60269;52.502;16.732;2022-12-29T06:41:06;7.28;83.48
72320;SHT30;60269;52.502;16.732;2022-12-29T06:44:38;7.36;82.86
72320;SHT30;60269;52.502;16.732;2022-12-29T06:48:10;7.35;83.36
72320;SHT30;60269;52.502;16.732;2022-12-29T06:51:42;7.38;83.07
72320;SHT30;60269;52.502;16.732;2022-12-29T06:55:14;7.42;83.01
72320;SHT30;60269;52.502;16.732;2022-12-29T06:58:46;7.43;83.11
72320;SHT30;60269;52.502;16.732;2022-12-29T07:02:19;7.58;82.71
72320;SHT30;60269;52.502;16.732;2022-12-29T07:05:51;7.59;82.39
72320;SHT30;60269;52.502;16.732;2022-12-29T07:09:23;7.66;82.47
72320;SHT30;60269;52.502;16.732;2022-12-29T07:12:56;7.71;82.06
72320;SHT30;60269;52.502;16.732;2022-12-29T07:16:29;7.65;82.52
72320;SHT30;60269;52.502;16.732;2022-12-29T07:20:02;7.63;82.83
72320;SHT30;60269;52.502;16.732;2022-12-29T07:23:35;7.70;82.62
72320;SHT30;60269;52.502;16.732;2022-12-29T07:27:07;7.71;82.60
72320;SHT30;60269;52.502;16.732;2022-12-29T07:30:39;7.69;82.91
72320;SHT30;60269;52.502;16.732;2022-12-29T07:34:11;7.69;82.63
72320;SHT30;60269;52.502;16.732;2022-12-29T07:37:43;7.67;83.01
72320;SHT30;60269;52.502;16.732;2022-12-29T07:41:15;7.74;82.82
72320;SHT30;60269;52.502;16.732;2022-12-29T07:44:47;7.71;83.23
72320;SHT30;60269;52.502;16.732;2022-12-29T07:48:21;7.65;83.79
72320;SHT30;60269;52.502;16.732;2022-12-29T07:51:53;7.66;83.64
72320;SHT30;60269;52.502;16.732;2022-12-29T07:55:25;7.66;83.22
72320;SHT30;60269;52.502;16.732;2022-12-29T07:58:57;7.76;82.77
72320;SHT30;60269;52.502;16.732;2022-12-29T08:02:29;7.81;82.25
72320;SHT30;60269;52.502;16.732;2022-12-29T08:06:02;7.83;82.53
72320;SHT30;60269;52.502;16.732;2022-12-29T08:09:34;7.86;82.34
72320;SHT30;60269;52.502;16.732;2022-12-29T08:13:06;7.91;82.08
72320;SHT30;60269;52.502;16.732;2022-12-29T08:16:38;7.94;81.71
72320;SHT30;60269;52.502;16.732;2022-12-29T08:20:10;7.95;81.70
72320;SHT30;60269;52.502;16.732;2022-12-29T08:23:42;8.07;81.34
72320;SHT30;60269;52.502;16.732;2022-12-29T08:27:14;8.10;81.34
72320;SHT30;60269;52.502;16.732;2022-12-29T08:30:51;8.20;80.62
72320;SHT30;60269;52.502;16.732;2022-12-29T08:34:24;8.21;80.51
72320;SHT30;60269;52.502;16.732;2022-12-29T08:37:56;8.34;80.25
72320;SHT30;60269;52.502;16.732;2022-12-29T08:41:27;8.35;80.44
72320;SHT30;60269;52.502;16.732;2022-12-29T08:45:00;8.31;80.58
72320;SHT30;60269;52.502;16.732;2022-12-29T08:48:32;8.32;80.40
72320;SHT30;60269;52.502;16.732;2022-12-29T08:52:04;8.38;80.10
72320;SHT30;60269;52.502;16.732;2022-12-29T08:55:36;8.39;80.39
72320;SHT30;60269;52.502;16.732;2022-12-29T08:59:08;8.42;80.50
72320;SHT30;60269;52.502;16.732;2022-12-29T09:02:40;8.44;80.59
72320;SHT30;60269;52.502;16.732;2022-12-29T09:06:14;8.50;80.41
72320;SHT30;60269;52.502;16.732;2022-12-29T09:09:46;8.77;79.40
72320;SHT30;60269;52.502;16.732;2022-12-29T09:13:18;8.96;79.36
72320;SHT30;60269;52.502;16.732;2022-12-29T09:16:51;9.04;79.44
72320;SHT30;60269;52.502;16.732;2022-12-29T09:20:42;9.23;78.71
72320;SHT30;60269;52.502;16.732;2022-12-29T09:24:14;9.54;77.81
72320;SHT30;60269;52.502;16.732;2022-12-29T09:27:46;9.41;77.95
72320;SHT30;60269;52.502;16.732;2022-12-29T09:31:19;9.32;79.04
72320;SHT30;60269;52.502;16.732;2022-12-29T09:34:51;9.27;78.95
72320;SHT30;60269;52.502;16.732;2022-12-29T09:38:24;9.32;79.19
72320;SHT30;60269;52.502;16.732;2022-12-29T09:42:36;9.35;78.61
72320;SHT30;60269;52.502;16.732;2022-12-29T09:46:25;9.65;77.39
72320;SHT30;60269;52.502;16.732;2022-12-29T09:53:41;9.86;77.74
72320;SHT30;60269;52.502;16.732;2022-12-29T09:57:21;10.02;76.82
72320;SHT30;60269;52.502;16.732;2022-12-29T10:01:05;10.32;75.89
72320;SHT30;60269;52.502;16.732;2022-12-29T10:04:40;10.48;74.78
72320;SHT30;60269;52.502;16.732;2022-12-29T10:12:02;10.50;74.68
72320;SHT30;60269;52.502;16.732;2022-12-29T10:23:29;10.38;75.73
72320;SHT30;60269;52.502;16.732;2022-12-29T10:27:07;10.51;74.72
72320;SHT30;60269;52.502;16.732;2022-12-29T10:30:42;10.40;75.59
72320;SHT30;60269;52.502;16.732;2022-12-29T10:34:22;10.33;75.63
72320;SHT30;60269;52.502;16.732;2022-12-29T10:42:33;10.92;74.16
72320;SHT30;60269;52.502;16.732;2022-12-29T10:46:11;11.20;73.44
72320;SHT30;60269;52.502;16.732;2022-12-29T10:49:46;11.23;72.95
72320;SHT30;60269;52.502;16.732;2022-12-29T10:53:23;10.88;73.62
72320;SHT30;60269;52.502;16.732;2022-12-29T10:57:03;10.60;74.78
72320;SHT30;60269;52.502;16.732;2022-12-29T11:00:36;10.40;75.91
72320;SHT30;60269;52.502;16.732;2022-12-29T11:08:02;11.08;74.04
72320;SHT30;60269;52.502;16.732;2022-12-29T11:11:36;11.37;72.60
72320;SHT30;60269;52.502;16.732;2022-12-29T11:15:15;11.61;71.98
72320;SHT30;60269;52.502;16.732;2022-12-29T11:18:47;11.24;73.42
72320;SHT30;60269;52.502;16.732;2022-12-29T11:22:28;11.16;73.69
72320;SHT30;60269;52.502;16.732;2022-12-29T11:26:20;11.20;73.63
72320;SHT30;60269;52.502;16.732;2022-12-29T11:29:53;11.37;73.44
72320;SHT30;60269;52.502;16.732;2022-12-29T11:33:28;11.61;72.81
72320;SHT30;60269;52.502;16.732;2022-12-29T11:37:28;11.64;72.26
72320;SHT30;60269;52.502;16.732;2022-12-29T11:41:03;11.89;71.72
72320;SHT30;60269;52.502;16.732;2022-12-29T11:44:38;12.24;70.17
72320;SHT30;60269;52.502;16.732;2022-12-29T11:48:18;12.15;69.86
72320;SHT30;60269;52.502;16.732;2022-12-29T11:51:52;12.09;70.10
72320;SHT30;60269;52.502;16.732;2022-12-29T11:55:28;11.94;70.71
72320;SHT30;60269;52.502;16.732;2022-12-29T12:03:03;11.67;72.01
72320;SHT30;60269;52.502;16.732;2022-12-29T12:06:43;11.87;72.03
72320;SHT30;60269;52.502;16.732;2022-12-29T12:10:31;12.18;70.85
72320;SHT30;60269;52.502;16.732;2022-12-29T12:14:25;12.08;70.41
72320;SHT30;60269;52.502;16.732;2022-12-29T12:18:01;12.25;70.18
72320;SHT30;60269;52.502;16.732;2022-12-29T12:21:46;12.32;70.03
72320;SHT30;60269;52.502;16.732;2022-12-29T12:25:23;12.32;70.09
72320;SHT30;60269;52.502;16.732;2022-12-29T12:29:00;12.33;70.08
72320;SHT30;60269;52.502;16.732;2022-12-29T12:36:44;12.39;69.48
72320;SHT30;60269;52.502;16.732;2022-12-29T12:48:14;12.50;69.17
72320;SHT30;60269;52.502;16.732;2022-12-29T13:00:00;12.52;68.69
72320;SHT30;60269;52.502;16.732;2022-12-29T13:26:28;11.59;71.56
72320;SHT30;60269;52.502;16.732;2022-12-29T13:34:10;11.39;71.87
72320;SHT30;60269;52.502;16.732;2022-12-29T13:37:52;11.30;72.29
72320;SHT30;60269;52.502;16.732;2022-12-29T13:41:30;11.24;72.24
72320;SHT30;60269;52.502;16.732;2022-12-29T13:45:06;11.20;72.66
72320;SHT30;60269;52.502;16.732;2022-12-29T13:48:47;11.09;72.76
72320;SHT30;60269;52.502;16.732;2022-12-29T13:56:24;11.03;72.70
72320;SHT30;60269;52.502;16.732;2022-12-29T14:00:04;10.93;73.21
72320;SHT30;60269;52.502;16.732;2022-12-29T14:03:58;10.85;73.10
72320;SHT30;60269;52.502;16.732;2022-12-29T14:07:36;10.68;74.07
72320;SHT30;60269;52.502;16.732;2022-12-29T14:11:11;10.62;74.22
72320;SHT30;60269;52.502;16.732;2022-12-29T14:14:43;10.55;74.39
72320;SHT30;60269;52.502;16.732;2022-12-29T14:18:21;10.53;74.80
72320;SHT30;60269;52.502;16.732;2022-12-29T14:22:04;10.64;74.25
72320;SHT30;60269;52.502;16.732;2022-12-29T14:25:56;10.61;74.60
72320;SHT30;60269;52.502;16.732;2022-12-29T14:33:02;10.60;74.51
72320;SHT30;60269;52.502;16.732;2022-12-29T14:36:35;10.54;74.93
72320;SHT30;60269;52.502;16.732;2022-12-29T14:40:21;10.44;75.36
72320;SHT30;60269;52.502;16.732;2022-12-29T14:44:18;10.50;74.69
72320;SHT30;60269;52.502;16.732;2022-12-29T14:47:52;10.32;75.41
72320;SHT30;60269;52.502;16.732;2022-12-29T14:51:32;10.24;75.64
72320;SHT30;60269;52.502;16.732;2022-12-29T14:58:49;10.25;75.60
72320;SHT30;60269;52.502;16.732;2022-12-29T15:02:26;10.14;75.93
72320;SHT30;60269;52.502;16.732;2022-12-29T15:06:07;10.27;75.46
72320;SHT30;60269;52.502;16.732;2022-12-29T15:09:46;10.32;75.66
72320;SHT30;60269;52.502;16.732;2022-12-29T15:13:31;10.34;75.59
72320;SHT30;60269;52.502;16.732;2022-12-29T15:21:03;10.17;76.22
72320;SHT30;60269;52.502;16.732;2022-12-29T15:24:41;10.23;75.66
72320;SHT30;60269;52.502;16.732;2022-12-29T15:28:14;10.20;75.82
72320;SHT30;60269;52.502;16.732;2022-12-29T15:31:47;10.12;76.35
72320;SHT30;60269;52.502;16.732;2022-12-29T15:35:32;10.05;76.54
72320;SHT30;60269;52.502;16.732;2022-12-29T15:39:25;10.06;76.58
72320;SHT30;60269;52.502;16.732;2022-12-29T15:46:43;10.23;75.73
72320;SHT30;60269;52.502;16.732;2022-12-29T15:53:53;10.09;75.85
72320;SHT30;60269;52.502;16.732;2022-12-29T15:57:30;10.03;75.74
72320;SHT30;60269;52.502;16.732;2022-12-29T16:01:04;10.07;75.34
72320;SHT30;60269;52.502;16.732;2022-12-29T16:04:37;9.96;75.68
72320;SHT30;60269;52.502;16.732;2022-12-29T16:08:35;10.02;75.31
72320;SHT30;60269;52.502;16.732;2022-12-29T16:12:18;10.00;75.14
72320;SHT30;60269;52.502;16.732;2022-12-29T16:16:47;9.90;75.41
72320;SHT30;60269;52.502;16.732;2022-12-29T16:19:59;9.92;75.34
72320;SHT30;60269;52.502;16.732;2022-12-29T16:23:32;9.90;75.38
72320;SHT30;60269;52.502;16.732;2022-12-29T16:27:15;9.90;75.44
72320;SHT30;60269;52.502;16.732;2022-12-29T16:31:04;9.87;75.41
72320;SHT30;60269;52.502;16.732;2022-12-29T16:41:45;9.71;76.00
72320;SHT30;60269;52.502;16.732;2022-12-29T16:48:54;9.90;75.14
72320;SHT30;60269;52.502;16.732;2022-12-29T16:52:33;9.95;74.77
72320;SHT30;60269;52.502;16.732;2022-12-29T16:56:13;9.92;74.67
72320;SHT30;60269;52.502;16.732;2022-12-29T16:59:46;9.82;74.95
72320;SHT30;60269;52.502;16.732;2022-12-29T17:03:27;9.81;75.16
72320;SHT30;60269;52.502;16.732;2022-12-29T17:07:02;9.92;74.46
72320;SHT30;60269;52.502;16.732;2022-12-29T17:10:34;9.90;74.49
72320;SHT30;60269;52.502;16.732;2022-12-29T17:18:12;9.82;75.10
72320;SHT30;60269;52.502;16.732;2022-12-29T17:21:45;9.71;75.33
72320;SHT30;60269;52.502;16.732;2022-12-29T17:25:20;9.85;75.11
72320;SHT30;60269;52.502;16.732;2022-12-29T17:28:52;9.82;75.22
72320;SHT30;60269;52.502;16.732;2022-12-29T17:32:24;9.90;74.81
72320;SHT30;60269;52.502;16.732;2022-12-29T17:35:56;9.95;74.90
72320;SHT30;60269;52.502;16.732;2022-12-29T17:39:28;9.97;74.69
72320;SHT30;60269;52.502;16.732;2022-12-29T17:43:00;9.92;74.68
72320;SHT30;60269;52.502;16.732;2022-12-29T17:46:33;10.03;74.04
72320;SHT30;60269;52.502;16.732;2022-12-29T17:50:12;10.00;74.13
72320;SHT30;60269;52.502;16.732;2022-12-29T17:53:45;9.99;74.19
72320;SHT30;60269;52.502;16.732;2022-12-29T17:57:18;9.97;74.25
72320;SHT30;60269;52.502;16.732;2022-12-29T18:00:53;9.97;74.17
72320;SHT30;60269;52.502;16.732;2022-12-29T18:04:25;9.95;74.12
72320;SHT30;60269;52.502;16.732;2022-12-29T18:07:58;9.87;74.53
72320;SHT30;60269;52.502;16.732;2022-12-29T18:11:30;9.89;74.27
72320;SHT30;60269;52.502;16.732;2022-12-29T18:15:04;9.86;74.81
72320;SHT30;60269;52.502;16.732;2022-12-29T18:18:38;9.87;74.53
72320;SHT30;60269;52.502;16.732;2022-12-29T18:22:10;9.82;74.62
72320;SHT30;60269;52.502;16.732;2022-12-29T18:25:46;9.75;74.87
72320;SHT30;60269;52.502;16.732;2022-12-29T18:29:19;9.82;74.69
72320;SHT30;60269;52.502;16.732;2022-12-29T18:32:51;9.79;74.73
72320;SHT30;60269;52.502;16.732;2022-12-29T18:36:25;9.78;74.95
72320;SHT30;60269;52.502;16.732;2022-12-29T18:39:57;9.81;74.84
72320;SHT30;60269;52.502;16.732;2022-12-29T18:43:30;9.87;74.53
72320;SHT30;60269;52.502;16.732;2022-12-29T18:47:02;9.71;75.53
72320;SHT30;60269;52.502;16.732;2022-12-29T18:50:34;9.56;76.25
72320;SHT30;60269;52.502;16.732;2022-12-29T18:54:24;9.56;76.01
72320;SHT30;60269;52.502;16.732;2022-12-29T18:57:57;9.56;76.12
72320;SHT30;60269;52.502;16.732;2022-12-29T19:01:28;9.58;76.15
72320;SHT30;60269;52.502;16.732;2022-12-29T19:05:02;9.48;76.38
72320;SHT30;60269;52.502;16.732;2022-12-29T19:08:39;9.35;76.71
72320;SHT30;60269;52.502;16.732;2022-12-29T19:12:14;9.34;76.62
72320;SHT30;60269;52.502;16.732;2022-12-29T19:15:50;9.21;77.12
72320;SHT30;60269;52.502;16.732;2022-12-29T19:19:22;9.18;77.04
72320;SHT30;60269;52.502;16.732;2022-12-29T19:22:55;9.01;77.63
72320;SHT30;60269;52.502;16.732;2022-12-29T19:26:32;8.89;78.09
72320;SHT30;60269;52.502;16.732;2022-12-29T19:30:08;8.86;78.15
72320;SHT30;60269;52.502;16.732;2022-12-29T19:33:42;8.83;78.52
72320;SHT30;60269;52.502;16.732;2022-12-29T19:37:14;8.66;79.03
72320;SHT30;60269;52.502;16.732;2022-12-29T19:40:48;8.70;78.97
72320;SHT30;60269;52.502;16.732;2022-12-29T19:44:21;8.65;79.20
72320;SHT30;60269;52.502;16.732;2022-12-29T19:47:53;8.58;79.38
72320;SHT30;60269;52.502;16.732;2022-12-29T19:51:26;8.68;79.22
72320;SHT30;60269;52.502;16.732;2022-12-29T19:54:58;8.93;78.17
72320;SHT30;60269;52.502;16.732;2022-12-29T19:58:31;8.87;78.40
72320;SHT30;60269;52.502;16.732;2022-12-29T20:02:03;8.81;78.75
72320;SHT30;60269;52.502;16.732;2022-12-29T20:05:36;8.90;78.54
72320;SHT30;60269;52.502;16.732;2022-12-29T20:09:08;8.84;78.70
72320;SHT30;60269;52.502;16.732;2022-12-29T20:12:40;8.80;79.05
72320;SHT30;60269;52.502;16.732;2022-12-29T20:16:15;8.84;78.85
72320;SHT30;60269;52.502;16.732;2022-12-29T20:19:48;8.83;78.99
72320;SHT30;60269;52.502;16.732;2022-12-29T20:23:20;8.84;79.09
72320;SHT30;60269;52.502;16.732;2022-12-29T20:26:52;8.75;79.38
72320;SHT30;60269;52.502;16.732;2022-12-29T20:30:25;8.66;79.72
72320;SHT30;60269;52.502;16.732;2022-12-29T20:33:57;8.62;79.99
72320;SHT30;60269;52.502;16.732;2022-12-29T20:37:29;8.52;80.40
72320;SHT30;60269;52.502;16.732;2022-12-29T20:41:02;8.35;80.94
72320;SHT30;60269;52.502;16.732;2022-12-29T20:44:34;8.12;81.75
72320;SHT30;60269;52.502;16.732;2022-12-29T20:48:07;8.11;81.86
72320;SHT30;60269;52.502;16.732;2022-12-29T20:51:39;8.01;82.24
72320;SHT30;60269;52.502;16.732;2022-12-29T20:55:34;7.95;82.54
72320;SHT30;60269;52.502;16.732;2022-12-29T20:59:06;8.05;82.20
72320;SHT30;60269;52.502;16.732;2022-12-29T21:02:58;7.97;82.47
72320;SHT30;60269;52.502;16.732;2022-12-29T21:06:32;8.14;82.01
72320;SHT30;60269;52.502;16.732;2022-12-29T21:10:04;8.11;82.28
72320;SHT30;60269;52.502;16.732;2022-12-29T21:13:36;8.14;82.02
72320;SHT30;60269;52.502;16.732;2022-12-29T21:17:08;8.17;81.92
72320;SHT30;60269;52.502;16.732;2022-12-29T21:20:40;8.01;82.57
72320;SHT30;60269;52.502;16.732;2022-12-29T21:24:13;8.00;82.60
72320;SHT30;60269;52.502;16.732;2022-12-29T21:27:44;7.95;83.01
72320;SHT30;60269;52.502;16.732;2022-12-29T21:31:35;8.00;82.61
72320;SHT30;60269;52.502;16.732;2022-12-29T21:35:07;8.01;82.69
72320;SHT30;60269;52.502;16.732;2022-12-29T21:38:40;8.10;82.49
72320;SHT30;60269;52.502;16.732;2022-12-29T21:42:12;8.11;82.57
72320;SHT30;60269;52.502;16.732;2022-12-29T21:45:48;8.01;82.88
72320;SHT30;60269;52.502;16.732;2022-12-29T21:49:20;7.98;83.23
72320;SHT30;60269;52.502;16.732;2022-12-29T21:52:54;8.11;82.62
72320;SHT30;60269;52.502;16.732;2022-12-29T21:56:26;8.14;82.47
72320;SHT30;60269;52.502;16.732;2022-12-29T21:59:59;8.17;82.46
72320;SHT30;60269;52.502;16.732;2022-12-29T22:03:49;8.08;82.90
72320;SHT30;60269;52.502;16.732;2022-12-29T22:07:39;8.12;82.80
72320;SHT30;60269;52.502;16.732;2022-12-29T22:11:29;8.18;82.47
72320;SHT30;60269;52.502;16.732;2022-12-29T22:15:20;8.18;82.62
72320;SHT30;60269;52.502;16.732;2022-12-29T22:18:52;8.32;82.13
72320;SHT30;60269;52.502;16.732;2022-12-29T22:22:25;8.29;82.06
72320;SHT30;60269;52.502;16.732;2022-12-29T22:26:02;8.25;82.34
72320;SHT30;60269;52.502;16.732;2022-12-29T22:29:34;8.20;82.46
72320;SHT30;60269;52.502;16.732;2022-12-29T22:33:06;8.20;82.42
72320;SHT30;60269;52.502;16.732;2022-12-29T22:36:39;8.12;82.70
72320;SHT30;60269;52.502;16.732;2022-12-29T22:40:11;8.10;82.88
72320;SHT30;60269;52.502;16.732;2022-12-29T22:43:43;8.04;83.14
72320;SHT30;60269;52.502;16.732;2022-12-29T22:47:15;8.07;82.94
72320;SHT30;60269;52.502;16.732;2022-12-29T22:50:47;8.07;83.00
72320;SHT30;60269;52.502;16.732;2022-12-29T22:54:19;7.89;83.70
72320;SHT30;60269;52.502;16.732;2022-12-29T22:57:52;7.76;84.20
72320;SHT30;60269;52.502;16.732;2022-12-29T23:01:23;7.67;84.30
72320;SHT30;60269;52.502;16.732;2022-12-29T23:04:56;7.71;84.23
72320;SHT30;60269;52.502;16.732;2022-12-29T23:08:37;7.70;84.11
72320;SHT30;60269;52.502;16.732;2022-12-29T23:12:10;7.86;83.56
72320;SHT30;60269;52.502;16.732;2022-12-29T23:15:42;7.91;83.43
72320;SHT30;60269;52.502;16.732;2022-12-29T23:19:14;8.04;83.11
72320;SHT30;60269;52.502;16.732;2022-12-29T23:22:46;8.10;82.76
72320;SHT30;60269;52.502;16.732;2022-12-29T23:26:20;8.04;83.40
72320;SHT30;60269;52.502;16.732;2022-12-29T23:29:52;7.98;83.66
72320;SHT30;60269;52.502;16.732;2022-12-29T23:33:24;8.04;83.54
72320;SHT30;60269;52.502;16.732;2022-12-29T23:36:56;8.02;83.65
72320;SHT30;60269;52.502;16.732;2022-12-29T23:40:28;8.11;83.28
72320;SHT30;60269;52.502;16.732;2022-12-29T23:44:00;7.95;83.75
72320;SHT30;60269;52.502;16.732;2022-12-29T23:47:32;7.87;84.15
72320;SHT30;60269;52.502;16.732;2022-12-29T23:51:05;7.93;83.93
72320;SHT30;60269;52.502;16.732;2022-12-29T23:54:37;7.90;84.16
72320;SHT30;60269;52.502;16.732;2022-12-29T23:58:09;7.95;83.93
